Flight Track Log - Related Links

Times and Time Zones

All times are in EDT time to prevent confusion due to time zone crossing. See the DAL2075 flight status page for this flight to view local times or setup timezone preferences in your user account.

Time Position Orientation Groundspeed Altitude Reporting Facility
EDT Latitude Longitude Course Direction KTS MPH feet Rate Location/Type
Wed 10:54:20 AM 33.6500 -84.5000 270° West 227 261 3,400  Level Atlanta TRACON
Wed 10:55:20 AM 33.6667 -84.5833 284° West 258 297 7,100 2,478 Climbing Atlanta TRACON
Wed 10:56:00 AM 33.8001 -84.3602 270° West  Level FlightAware Approximate
Wed 10:57:00 AM 33.8001 -84.4967 270° West  Level FlightAware Approximate
Wed 10:57:41 AM 33.7083 -84.8231 282° West 315 362 11,700  Level Atlanta Center
Wed 10:58:00 AM 33.8000 -84.6332 270° West  Level FlightAware Approximate
Wed 10:58:41 AM 33.7261 -84.9506 280° West 375 432 14,600  Level Atlanta Center
Wed 10:59:00 AM 33.8001 -84.7697 270° West  Level FlightAware Approximate
Wed 10:59:41 AM 33.7439 -85.0806 279° West 392 451 17,200  Level Atlanta Center
Wed 11:00:41 AM 33.7239 -85.2103 260° West 386 444 19,100 1,900 Climbing Atlanta Center
Wed 11:01:41 AM 33.7017 -85.3472 259° West 407 468 21,000 1,900 Climbing Atlanta Center
Wed 11:02:41 AM 33.7231 -85.4825 281° West 406 467 22,900 1,550 Climbing Atlanta Center
Wed 11:03:41 AM 33.7592 -85.6031 290° West 413 475 24,100 1,700 Climbing Atlanta Center
Wed 11:04:41 AM 33.8014 -85.7361 291° West 429 494 26,300 1,950 Climbing Atlanta Center
Wed 11:05:41 AM 33.8394 -85.8569 291° West 421 484 28,000 1,750 Climbing Atlanta Center
Wed 11:06:41 AM 33.8769 -85.9856 289° West 409 471 29,800 1,000 Climbing Atlanta Center
Wed 11:07:41 AM 33.9125 -86.1114 289° West 404 465 30,000 100 Climbing Atlanta Center
Wed 11:08:41 AM 33.9519 -86.2400 290° West 410 472 30,000  Level Atlanta Center
Wed 11:09:41 AM 33.9914 -86.3664 291° West 410 472 30,000  Level Atlanta Center
Wed 11:10:41 AM 34.0308 -86.4928 291° West 410 472 30,000  Level Atlanta Center
Wed 11:12:57 AM 34.1175 -86.7969 289° West 403 464 30,000  Level Memphis Center
Wed 11:13:57 AM 34.1567 -86.9286 290° West 403 464 30,000  Level Memphis Center
Wed 11:14:57 AM 34.1956 -87.0525 291° West 396 456 30,000  Level Memphis Center
Wed 11:15:57 AM 34.2297 -87.1692 290° West 386 444 30,000 100 Level Memphis Center
Wed 11:16:57 AM 34.2683 -87.2958 290° West 393 452 30,200 950 Climbing Memphis Center
Wed 11:17:57 AM 34.3028 -87.4231 288° West 404 465 31,900 900 Climbing Memphis Center
Wed 11:18:57 AM 34.3414 -87.5525 290° West 404 465 32,000 50 Climbing Memphis Center
Wed 11:19:57 AM 34.3753 -87.6747 289° West 399 459 32,000  Level Memphis Center
Wed 11:20:57 AM 34.4136 -87.8044 290° West 399 459 32,000  Level Memphis Center
Wed 11:21:57 AM 34.4469 -87.9117 291° West 399 459 32,000  Level Memphis Center
Wed 11:22:57 AM 34.4806 -88.0317 289° West 392 451 32,000  Level Memphis Center
Wed 11:23:57 AM 34.5161 -88.1567 289° West 381 438 32,000  Level Memphis Center
Wed 11:24:57 AM 34.5519 -88.2894 288° West 400 460 32,000  Level Memphis Center
Wed 11:25:57 AM 34.5872 -88.4147 289° West 400 460 32,000  Level Memphis Center
Wed 11:26:57 AM 34.6206 -88.5350 289° West 394 453 32,000  Level Memphis Center
Wed 11:27:57 AM 34.6600 -88.6731 289° West 394 453 32,000  Level Memphis Center
Wed 11:28:57 AM 34.6950 -88.8011 288° West 394 453 32,000  Level Memphis Center
Wed 11:29:57 AM 34.7300 -88.9244 289° West 399 459 32,000  Level Memphis Center
Wed 11:30:57 AM 34.7625 -89.0503 287° West 399 459 32,000  Level Memphis Center
Wed 11:31:57 AM 34.7994 -89.1786 289° West 399 459 32,000  Level Memphis Center
Wed 11:32:57 AM 34.8317 -89.3047 287° West 399 459 32,000  Level Memphis Center
Wed 11:33:57 AM 34.8683 -89.4308 290° West 399 459 32,000  Level Memphis Center
Wed 11:34:57 AM 34.9025 -89.5544 289° West 399 459 32,000  Level Memphis Center
Wed 11:35:57 AM 34.9367 -89.6783 289° West 389 448 32,000 300 Level Memphis Center
Wed 11:36:57 AM 34.9747 -89.8097 290° West 389 448 32,600 950 Climbing Memphis Center
Wed 11:37:57 AM 35.0067 -89.9336 288° West 395 455 33,900 700 Climbing Memphis Center
Wed 11:38:57 AM 35.0569 -90.0425 299° West 383 441 34,000 50 Climbing Memphis Center
Wed 11:39:57 AM 35.1303 -90.1439 312° West 386 444 34,000  Level Memphis Center
Wed 11:40:57 AM 35.2033 -90.2428 312° West 391 450 34,000  Level Memphis Center
Wed 11:41:57 AM 35.2786 -90.3419 313° West 391 450 34,000  Level Memphis Center
Wed 11:42:57 AM 35.3536 -90.4436 312° West 391 450 34,000  Level Memphis Center
Wed 11:43:57 AM 35.4181 -90.5353 311° West 396 456 34,000 -400 Level Memphis Center
Wed 11:44:57 AM 35.4911 -90.6350 312° West 396 456 33,200 -1,700 Descending Memphis Center
Wed 11:45:57 AM 35.5617 -90.7372 310° West 396 456 30,600 -2,550 Descending Memphis Center
Wed 11:46:57 AM 35.6322 -90.8294 313° West 385 443 28,100 -1,300 Descending Memphis Center
Wed 11:47:57 AM 35.7069 -90.9425 309° West 385 443 28,000 -50 Descending Memphis Center
Wed 11:48:57 AM 35.7772 -91.0453 310° West 385 443 28,000  Level Memphis Center
Wed 11:49:57 AM 35.8517 -91.1458 312° West 390 449 28,000  Level Memphis Center
Wed 11:50:57 AM 35.9242 -91.2492 311° West 390 449 28,000  Level Memphis Center
Wed 11:51:57 AM 35.9942 -91.3525 310° West 385 443 28,000  Level Memphis Center
Wed 11:52:57 AM 36.0581 -91.4381 313° West 385 443 28,000  Level Memphis Center
Wed 11:53:57 AM 36.1281 -91.5417 310° West 385 443 28,000  Level Memphis Center
Wed 11:54:57 AM 36.2000 -91.6431 311° West 385 443 28,000  Level Memphis Center
Wed 11:55:57 AM 36.2697 -91.7419 311° West 385 443 28,000  Level Memphis Center
Wed 11:56:57 AM 36.3500 -91.8489 313° West 385 443 28,000  Level Memphis Center
Wed 11:57:57 AM 36.4194 -91.9481 311° West 385 443 28,000  Level Memphis Center
Wed 11:58:57 AM 36.4869 -92.0528 309° West 385 443 28,000  Level Memphis Center
Wed 11:59:57 AM 36.5564 -92.1522 311° West 385 443 28,000  Level Memphis Center
Wed 12:02:28 PM 36.7225 -92.3897 311° West 380 437 28,000  Level Kansas City Center
Wed 12:03:29 PM 36.7900 -92.4886 310° West 375 432 28,000  Level Kansas City Center
Wed 12:04:33 PM 36.8572 -92.5892 310° West 375 432 28,000  Level Kansas City Center
Wed 12:05:33 PM 36.9244 -92.6875 311° West 372 428 28,000  Level Kansas City Center
Wed 12:06:35 PM 36.9903 -92.7872 310° West 370 426 28,000  Level Kansas City Center
Wed 12:07:37 PM 37.0694 -92.9033 311° West 365 420 28,000  Level Kansas City Center
Wed 12:08:39 PM 37.1350 -93.0011 310° West 365 420 28,000  Level Kansas City Center
Wed 12:09:43 PM 37.2000 -93.0986 310° West 362 417 28,000  Level Kansas City Center
Wed 12:11:00 PM 37.2819 -93.2310 310° West  Level FlightAware Approximate
Wed 12:11:47 PM 37.3286 -93.2931 310° West 360 414 28,000  Level Kansas City Center
Wed 12:12:48 PM 37.4142 -93.3661 326° Northwest 379 436 28,000  Level Kansas City Center
Wed 12:13:50 PM 37.5150 -93.4228 336° Northwest 388 447 28,000  Level Kansas City Center
Wed 12:14:51 PM 37.6150 -93.4764 337° Northwest 390 449 28,000 -192 Level Kansas City Center
Wed 12:15:55 PM 37.7339 -93.5422 336° Northwest 386 444 27,600 -762 Descending Kansas City Center
Wed 12:16:57 PM 37.8319 -93.5981 336° Northwest 383 441 26,400 -1,016 Descending Kansas City Center
Wed 12:17:59 PM 37.9336 -93.6536 337° Northwest 392 451 25,500 -677 Descending Kansas City Center
Wed 12:19:01 PM 38.0350 -93.7100 336° Northwest 394 453 25,000 -484 Descending Kansas City Center
Wed 12:20:03 PM 38.1344 -93.7669 336° Northwest 391 450 24,500 -634 Descending Kansas City Center
Wed 12:21:04 PM 38.2314 -93.8222 336° Northwest 384 442 23,700 -1,597 Descending Kansas City Center
Wed 12:22:07 PM 38.3261 -93.8769 336° Northwest 376 433 21,200 -2,323 Descending Kansas City Center
Wed 12:23:08 PM 38.4169 -93.9306 335° Northwest 364 419 18,900 -2,459 Descending Kansas City Center
Wed 12:24:09 PM 38.5136 -93.9847 336° Northwest 352 405 16,200 -2,928 Descending Kansas City Center
Wed 12:25:13 PM 38.6081 -94.0414 335° Northwest 338 389 12,800 -2,371 Descending Kansas City Center
Wed 12:26:13 PM 38.6892 -94.0889 335° Northwest 335 386 11,300 -1,355 Descending Kansas City Center
Wed 12:27:17 PM 38.7639 -94.1706 320° Northwest 315 362 10,000 -624 Descending Kansas City Center
Wed 12:28:18 PM 38.8231 -94.2350 320° Northwest 295 339 10,000  Level Kansas City Center
Wed 12:29:20 PM 38.8736 -94.3150 309° West 258 297 10,000 -439 Level Kansas City Center
Wed 12:30:21 PM 38.9156 -94.3844 308° West 256 295 9,100 -1,152 Descending Kansas City Center
Wed 12:31:25 PM 38.9558 -94.4544 307° West 256 295 7,600 -1,500 Descending Kansas City Center
Wed 12:32:25 PM 39.0036 -94.5342 308° West 252 290 6,000 -893 Descending Kansas City Center
Wed 12:33:26 PM 39.0458 -94.6028 308° West 255 293 5,800 -528 Descending Kansas City Center
Wed 12:34:30 PM 39.1025 -94.6717 317° Northwest 252 290 4,900 -864 Descending Kansas City Center
Wed 12:35:31 PM 39.1531 -94.7119 328° Northwest 223 257 4,000 -885 Descending Kansas City Center

Login

Don't have an account? Register now (free) for customized features, flight alerts, and more!